sensor_id;sensor_type;location;lat;lon;timestamp;pressure;altitude;pressure_sealevel;temperature;humidity
72892;BME280;61032;50.782;6.818;2022-07-29T00:00:38;100393.59;;;19.92;53.83
72892;BME280;61032;50.782;6.818;2022-07-29T00:01:39;100399.16;;;19.92;53.78
72892;BME280;61032;50.782;6.818;2022-07-29T00:02:39;100401.94;;;19.88;53.83
72892;BME280;61032;50.782;6.818;2022-07-29T00:03:39;100403.53;;;19.85;53.65
72892;BME280;61032;50.782;6.818;2022-07-29T00:04:40;100398.75;;;19.86;53.67
72892;BME280;61032;50.782;6.818;2022-07-29T00:05:41;100392.38;;;19.85;53.40
72892;BME280;61032;50.782;6.818;2022-07-29T00:06:41;100396.34;;;19.84;53.49
72892;BME280;61032;50.782;6.818;2022-07-29T00:07:41;100400.75;;;19.85;52.87
72892;BME280;61032;50.782;6.818;2022-07-29T00:08:42;100405.91;;;19.83;52.98
72892;BME280;61032;50.782;6.818;2022-07-29T00:09:42;100404.72;;;19.84;52.94
72892;BME280;61032;50.782;6.818;2022-07-29T00:10:42;100401.53;;;19.86;52.58
72892;BME280;61032;50.782;6.818;2022-07-29T00:11:43;100409.13;;;19.85;52.73
72892;BME280;61032;50.782;6.818;2022-07-29T00:12:43;100399.91;;;19.78;52.92
72892;BME280;61032;50.782;6.818;2022-07-29T00:13:43;100398.34;;;19.80;52.85
72892;BME280;61032;50.782;6.818;2022-07-29T00:14:43;100403.50;;;19.82;52.98
72892;BME280;61032;50.782;6.818;2022-07-29T00:15:44;100399.16;;;19.84;52.81
72892;BME280;61032;50.782;6.818;2022-07-29T00:16:44;100397.53;;;19.83;52.77
72892;BME280;61032;50.782;6.818;2022-07-29T00:17:44;100393.16;;;19.82;52.62
72892;BME280;61032;50.782;6.818;2022-07-29T00:18:45;100395.94;;;19.82;52.71
72892;BME280;61032;50.782;6.818;2022-07-29T00:19:45;100401.13;;;19.84;52.95
72892;BME280;61032;50.782;6.818;2022-07-29T00:20:45;100394.75;;;19.83;53.03
72892;BME280;61032;50.782;6.818;2022-07-29T00:21:45;100388.38;;;19.83;53.06
72892;BME280;61032;50.782;6.818;2022-07-29T00:22:46;100387.56;;;19.82;53.40
72892;BME280;61032;50.782;6.818;2022-07-29T00:23:46;100390.75;;;19.81;53.77
72892;BME280;61032;50.782;6.818;2022-07-29T00:24:48;100383.59;;;19.80;53.55
72892;BME280;61032;50.782;6.818;2022-07-29T00:25:48;100379.19;;;19.79;54.18
72892;BME280;61032;50.782;6.818;2022-07-29T00:26:49;100378.78;;;19.77;54.34
72892;BME280;61032;50.782;6.818;2022-07-29T00:27:49;100378.00;;;19.76;54.54
72892;BME280;61032;50.782;6.818;2022-07-29T00:28:49;100374.03;;;19.74;54.51
72892;BME280;61032;50.782;6.818;2022-07-29T00:29:50;100374.41;;;19.72;54.46
72892;BME280;61032;50.782;6.818;2022-07-29T00:30:50;100366.84;;;19.69;54.15
72892;BME280;61032;50.782;6.818;2022-07-29T00:31:50;100365.25;;;19.68;54.26
72892;BME280;61032;50.782;6.818;2022-07-29T00:32:51;100366.84;;;19.69;53.96
72892;BME280;61032;50.782;6.818;2022-07-29T00:33:51;100362.84;;;19.70;54.03
72892;BME280;61032;50.782;6.818;2022-07-29T00:34:52;100363.66;;;19.71;53.47
72892;BME280;61032;50.782;6.818;2022-07-29T00:36:10;100361.25;;;19.73;53.61
72892;BME280;61032;50.782;6.818;2022-07-29T00:37:11;100359.66;;;19.72;53.61
72892;BME280;61032;50.782;6.818;2022-07-29T00:38:16;100360.47;;;19.72;53.32
72892;BME280;61032;50.782;6.818;2022-07-29T00:39:16;100360.47;;;19.72;53.45
72892;BME280;61032;50.782;6.818;2022-07-29T00:40:17;100352.88;;;19.69;53.32
72892;BME280;61032;50.782;6.818;2022-07-29T00:41:18;100359.25;;;19.66;53.62
72892;BME280;61032;50.782;6.818;2022-07-29T00:42:18;100358.84;;;19.64;53.65
72892;BME280;61032;50.782;6.818;2022-07-29T00:43:19;100363.22;;;19.62;53.30
72892;BME280;61032;50.782;6.818;2022-07-29T00:44:19;100357.63;;;19.58;53.88
72892;BME280;61032;50.782;6.818;2022-07-29T00:45:19;100351.66;;;19.56;53.21
72892;BME280;61032;50.782;6.818;2022-07-29T00:46:20;100353.25;;;19.57;53.20
72892;BME280;61032;50.782;6.818;2022-07-29T00:47:20;100353.25;;;19.57;53.65
72892;BME280;61032;50.782;6.818;2022-07-29T00:48:20;100351.66;;;19.60;53.75
72892;BME280;61032;50.782;6.818;2022-07-29T00:49:21;100351.66;;;19.60;53.43
72892;BME280;61032;50.782;6.818;2022-07-29T00:50:22;100350.47;;;19.61;53.48
72892;BME280;61032;50.782;6.818;2022-07-29T00:51:25;100347.69;;;19.61;53.45
72892;BME280;61032;50.782;6.818;2022-07-29T00:52:25;100348.47;;;19.61;53.37
72892;BME280;61032;50.782;6.818;2022-07-29T00:53:26;100340.50;;;19.63;53.21
72892;BME280;61032;50.782;6.818;2022-07-29T00:54:27;100339.72;;;19.63;53.63
72892;BME280;61032;50.782;6.818;2022-07-29T00:55:29;100342.09;;;19.64;53.49
72892;BME280;61032;50.782;6.818;2022-07-29T00:56:33;100341.31;;;19.64;53.88
72892;BME280;61032;50.782;6.818;2022-07-29T00:57:34;100338.91;;;19.66;53.52
72892;BME280;61032;50.782;6.818;2022-07-29T00:58:35;100342.09;;;19.64;53.56
72892;BME280;61032;50.782;6.818;2022-07-29T00:59:35;100343.31;;;19.63;53.81
72892;BME280;61032;50.782;6.818;2022-07-29T01:00:36;100343.69;;;19.65;54.02
72892;BME280;61032;50.782;6.818;2022-07-29T01:01:36;100351.66;;;19.63;53.70
72892;BME280;61032;50.782;6.818;2022-07-29T01:02:37;100346.88;;;19.53;54.26
72892;BME280;61032;50.782;6.818;2022-07-29T01:03:37;100346.00;;;19.42;54.97
72892;BME280;61032;50.782;6.818;2022-07-29T01:04:38;100348.75;;;19.35;55.63
72892;BME280;61032;50.782;6.818;2022-07-29T01:05:40;100351.50;;;19.20;56.37
72892;BME280;61032;50.782;6.818;2022-07-29T01:06:42;100351.47;;;19.13;57.03
72892;BME280;61032;50.782;6.818;2022-07-29T01:07:42;100349.47;;;19.07;57.16
72892;BME280;61032;50.782;6.818;2022-07-29T01:08:45;100349.84;;;19.05;57.11
72892;BME280;61032;50.782;6.818;2022-07-29T01:09:45;100357.84;;;19.07;57.03
72892;BME280;61032;50.782;6.818;2022-07-29T01:10:46;100351.06;;;19.04;57.25
72892;BME280;61032;50.782;6.818;2022-07-29T01:11:47;100350.66;;;19.06;56.84
72892;BME280;61032;50.782;6.818;2022-07-29T01:12:51;100347.47;;;19.07;56.91
72892;BME280;61032;50.782;6.818;2022-07-29T01:13:53;100344.31;;;19.09;56.93
72892;BME280;61032;50.782;6.818;2022-07-29T01:14:54;100347.88;;;19.13;56.66
72892;BME280;61032;50.782;6.818;2022-07-29T01:15:56;100346.72;;;19.17;56.56
72892;BME280;61032;50.782;6.818;2022-07-29T01:17:05;100347.13;;;19.19;56.16
72892;BME280;61032;50.782;6.818;2022-07-29T01:18:11;100348.34;;;19.26;56.11
72892;BME280;61032;50.782;6.818;2022-07-29T01:21:54;100340.34;;;19.17;56.65
72892;BME280;61032;50.782;6.818;2022-07-29T01:24:39;100338.34;;;19.17;56.93
72892;BME280;61032;50.782;6.818;2022-07-29T01:28:43;100333.56;;;19.07;57.14
72892;BME280;61032;50.782;6.818;2022-07-29T01:29:50;100328.38;;;19.06;57.33
72892;BME280;61032;50.782;6.818;2022-07-29T01:30:54;100325.97;;;19.04;57.58
72892;BME280;61032;50.782;6.818;2022-07-29T01:32:08;100323.19;;;19.04;57.55
72892;BME280;61032;50.782;6.818;2022-07-29T01:33:13;100322.38;;;19.00;57.66
72892;BME280;61032;50.782;6.818;2022-07-29T01:35:06;100314.81;;;19.01;57.35
72892;BME280;61032;50.782;6.818;2022-07-29T01:36:13;100323.13;;;18.97;57.58
72892;BME280;61032;50.782;6.818;2022-07-29T01:37:25;100328.31;;;18.99;57.49
72892;BME280;61032;50.782;6.818;2022-07-29T01:38:27;100323.50;;;18.92;57.15
72892;BME280;61032;50.782;6.818;2022-07-29T01:39:32;100324.31;;;18.89;57.74
72892;BME280;61032;50.782;6.818;2022-07-29T01:40:48;100329.09;;;18.88;57.54
72892;BME280;61032;50.782;6.818;2022-07-29T01:41:57;100329.88;;;18.89;57.52
72892;BME280;61032;50.782;6.818;2022-07-29T01:43:05;100328.69;;;18.86;57.79
72892;BME280;61032;50.782;6.818;2022-07-29T01:44:20;100326.66;;;18.83;58.09
72892;BME280;61032;50.782;6.818;2022-07-29T01:46:33;100329.44;;;18.80;58.26
72892;BME280;61032;50.782;6.818;2022-07-29T01:47:40;100333.81;;;18.81;58.45
72892;BME280;61032;50.782;6.818;2022-07-29T01:48:52;100332.22;;;18.80;58.11
72892;BME280;61032;50.782;6.818;2022-07-29T01:49:56;100328.25;;;18.81;58.28
72892;BME280;61032;50.782;6.818;2022-07-29T01:51:02;100324.63;;;18.77;58.01
72892;BME280;61032;50.782;6.818;2022-07-29T01:52:19;100325.81;;;18.76;58.63
72892;BME280;61032;50.782;6.818;2022-07-29T01:53:29;100322.63;;;18.74;58.57
72892;BME280;61032;50.782;6.818;2022-07-29T01:54:37;100319.44;;;18.72;58.54
72892;BME280;61032;50.782;6.818;2022-07-29T01:55:42;100319.84;;;18.74;58.46
72892;BME280;61032;50.782;6.818;2022-07-29T01:56:45;100315.88;;;18.75;58.22
72892;BME280;61032;50.782;6.818;2022-07-29T01:57:48;100324.22;;;18.75;58.51
72892;BME280;61032;50.782;6.818;2022-07-29T01:58:49;100318.66;;;18.75;58.45
72892;BME280;61032;50.782;6.818;2022-07-29T01:59:52;100324.63;;;18.77;58.34
72892;BME280;61032;50.782;6.818;2022-07-29T02:00:55;100325.03;;;18.79;58.27
72892;BME280;61032;50.782;6.818;2022-07-29T02:01:57;100321.84;;;18.77;57.99
72892;BME280;61032;50.782;6.818;2022-07-29T02:03:01;100323.41;;;18.71;58.34
72892;BME280;61032;50.782;6.818;2022-07-29T02:04:06;100321.84;;;18.70;58.32
72892;BME280;61032;50.782;6.818;2022-07-29T02:05:10;100319.03;;;18.70;58.32
72892;BME280;61032;50.782;6.818;2022-07-29T02:06:16;100316.25;;;18.70;58.44
72892;BME280;61032;50.782;6.818;2022-07-29T02:07:19;100317.84;;;18.71;58.31
72892;BME280;61032;50.782;6.818;2022-07-29T02:08:21;100319.84;;;18.74;58.51
72892;BME280;61032;50.782;6.818;2022-07-29T02:09:23;100314.28;;;18.74;58.24
72892;BME280;61032;50.782;6.818;2022-07-29T02:10:28;100318.66;;;18.75;58.87
72892;BME280;61032;50.782;6.818;2022-07-29T02:11:30;100317.47;;;18.76;58.85
72892;BME280;61032;50.782;6.818;2022-07-29T02:12:32;100321.84;;;18.77;58.61
72892;BME280;61032;50.782;6.818;2022-07-29T02:13:36;100318.69;;;18.78;58.61
72892;BME280;61032;50.782;6.818;2022-07-29T02:14:42;100320.25;;;18.76;58.42
72892;BME280;61032;50.782;6.818;2022-07-29T02:15:45;100310.69;;;18.73;58.85
72892;BME280;61032;50.782;6.818;2022-07-29T02:16:48;100317.06;;;18.70;58.78
72892;BME280;61032;50.782;6.818;2022-07-29T02:17:56;100315.03;;;18.71;59.31
72892;BME280;61032;50.782;6.818;2022-07-29T02:18:58;100313.88;;;18.68;59.12
72892;BME280;61032;50.782;6.818;2022-07-29T02:20:02;100304.28;;;18.66;59.13
72892;BME280;61032;50.782;6.818;2022-07-29T02:21:03;100301.91;;;18.68;59.18
72892;BME280;61032;50.782;6.818;2022-07-29T02:22:05;100297.13;;;18.65;59.30
72892;BME280;61032;50.782;6.818;2022-07-29T02:23:07;100304.28;;;18.66;59.37
72892;BME280;61032;50.782;6.818;2022-07-29T02:24:11;100309.88;;;18.66;59.14
72892;BME280;61032;50.782;6.818;2022-07-29T02:25:12;100303.50;;;18.65;59.17
72892;BME280;61032;50.782;6.818;2022-07-29T02:26:13;100299.88;;;18.61;59.25
72892;BME280;61032;50.782;6.818;2022-07-29T02:27:15;100304.22;;;18.59;59.37
72892;BME280;61032;50.782;6.818;2022-07-29T02:28:17;100304.22;;;18.59;59.17
72892;BME280;61032;50.782;6.818;2022-07-29T02:29:21;100305.84;;;18.60;59.37
72892;BME280;61032;50.782;6.818;2022-07-29T02:30:23;100310.63;;;18.59;59.28
72892;BME280;61032;50.782;6.818;2022-07-29T02:31:30;100316.22;;;18.63;59.26
72892;BME280;61032;50.782;6.818;2022-07-29T02:32:35;100315.81;;;18.64;59.03
72892;BME280;61032;50.782;6.818;2022-07-29T02:33:38;100321.81;;;18.66;59.10
72892;BME280;61032;50.782;6.818;2022-07-29T02:34:41;100321.00;;;18.66;58.82
72892;BME280;61032;50.782;6.818;2022-07-29T02:35:44;100325.00;;;18.68;58.93
72892;BME280;61032;50.782;6.818;2022-07-29T02:36:45;100322.25;;;18.75;58.72
72892;BME280;61032;50.782;6.818;2022-07-29T02:37:46;100319.06;;;18.77;58.58
72892;BME280;61032;50.782;6.818;2022-07-29T02:39:07;100325.03;;;18.79;58.85
72892;BME280;61032;50.782;6.818;2022-07-29T02:40:11;100320.28;;;18.83;58.39
72892;BME280;61032;50.782;6.818;2022-07-29T02:41:52;100326.66;;;18.83;58.44
72892;BME280;61032;50.782;6.818;2022-07-29T02:42:55;100331.44;;;18.83;58.89
72892;BME280;61032;50.782;6.818;2022-07-29T02:44:05;100325.88;;;18.83;58.45
72892;BME280;61032;50.782;6.818;2022-07-29T02:45:06;100331.44;;;18.83;58.62
72892;BME280;61032;50.782;6.818;2022-07-29T02:46:12;100323.09;;;18.83;58.62
72892;BME280;61032;50.782;6.818;2022-07-29T02:47:38;100333.03;;;18.84;58.48
72892;BME280;61032;50.782;6.818;2022-07-29T02:48:58;100338.19;;;18.82;58.33
72892;BME280;61032;50.782;6.818;2022-07-29T02:50:21;100341.34;;;18.77;58.78
72892;BME280;61032;50.782;6.818;2022-07-29T02:52:47;100334.94;;;18.73;58.96
72892;BME280;61032;50.782;6.818;2022-07-29T02:53:54;100336.56;;;18.74;58.57
72892;BME280;61032;50.782;6.818;2022-07-29T02:55:00;100334.16;;;18.69;58.90
72892;BME280;61032;50.782;6.818;2022-07-29T02:56:07;100330.94;;;18.63;59.17
72892;BME280;61032;50.782;6.818;2022-07-29T02:57:19;100332.91;;;18.63;60.11
72892;BME280;61032;50.782;6.818;2022-07-29T02:58:32;100345.19;;;18.58;60.27
72892;BME280;61032;50.782;6.818;2022-07-29T02:59:36;100342.00;;;18.56;60.36
72892;BME280;61032;50.782;6.818;2022-07-29T03:00:41;100342.75;;;18.53;60.68
72892;BME280;61032;50.782;6.818;2022-07-29T03:01:43;100338.75;;;18.50;60.92
72892;BME280;61032;50.782;6.818;2022-07-29T03:02:45;100343.97;;;18.55;60.53
72892;BME280;61032;50.782;6.818;2022-07-29T03:03:49;100341.56;;;18.54;60.80
72892;BME280;61032;50.782;6.818;2022-07-29T03:04:51;100348.72;;;18.51;61.02
72892;BME280;61032;50.782;6.818;2022-07-29T03:05:56;100349.09;;;18.50;61.05
72892;BME280;61032;50.782;6.818;2022-07-29T03:06:58;100343.94;;;18.52;60.71
72892;BME280;61032;50.782;6.818;2022-07-29T03:08:09;100342.38;;;18.54;60.49
72892;BME280;61032;50.782;6.818;2022-07-29T03:09:11;100346.34;;;18.53;60.63
72892;BME280;61032;50.782;6.818;2022-07-29T03:10:12;100340.38;;;18.51;60.81
72892;BME280;61032;50.782;6.818;2022-07-29T03:11:13;100334.75;;;18.44;61.20
72892;BME280;61032;50.782;6.818;2022-07-29T03:12:15;100329.97;;;18.41;61.33
72892;BME280;61032;50.782;6.818;2022-07-29T03:13:16;100339.09;;;18.38;61.64
72892;BME280;61032;50.782;6.818;2022-07-29T03:14:18;100328.72;;;18.35;61.86
72892;BME280;61032;50.782;6.818;2022-07-29T03:15:19;100335.47;;;18.34;61.70
72892;BME280;61032;50.782;6.818;2022-07-29T03:16:21;100337.84;;;18.32;61.60
72892;BME280;61032;50.782;6.818;2022-07-29T03:17:22;100337.44;;;18.30;61.55
72892;BME280;61032;50.782;6.818;2022-07-29T03:18:23;100338.63;;;18.29;61.71
72892;BME280;61032;50.782;6.818;2022-07-29T03:19:25;100343.41;;;18.29;61.48
72892;BME280;61032;50.782;6.818;2022-07-29T03:20:26;100338.22;;;18.27;61.49
72892;BME280;61032;50.782;6.818;2022-07-29T03:21:27;100333.44;;;18.24;61.86
72892;BME280;61032;50.782;6.818;2022-07-29T03:22:27;100334.22;;;18.25;61.64
72892;BME280;61032;50.782;6.818;2022-07-29T03:23:28;100333.84;;;18.26;61.34
72892;BME280;61032;50.782;6.818;2022-07-29T03:24:31;100338.63;;;18.29;61.29
72892;BME280;61032;50.782;6.818;2022-07-29T03:25:31;100338.22;;;18.31;61.10
72892;BME280;61032;50.782;6.818;2022-07-29T03:26:32;100338.25;;;18.34;60.42
72892;BME280;61032;50.782;6.818;2022-07-29T03:27:32;100336.69;;;18.37;60.18
72892;BME280;61032;50.782;6.818;2022-07-29T03:28:32;100344.66;;;18.38;60.09
72892;BME280;61032;50.782;6.818;2022-07-29T03:29:33;100345.47;;;18.39;59.93
72892;BME280;61032;50.782;6.818;2022-07-29T03:30:33;100342.28;;;18.40;59.01
72892;BME280;61032;50.782;6.818;2022-07-29T03:31:33;100334.34;;;18.42;59.37
72892;BME280;61032;50.782;6.818;2022-07-29T03:32:34;100339.13;;;18.42;59.20
72892;BME280;61032;50.782;6.818;2022-07-29T03:33:35;100339.91;;;18.42;59.46
72892;BME280;61032;50.782;6.818;2022-07-29T03:34:36;100331.16;;;18.40;59.68
72892;BME280;61032;50.782;6.818;2022-07-29T03:35:37;100336.72;;;18.40;59.43
72892;BME280;61032;50.782;6.818;2022-07-29T03:36:37;100335.94;;;18.40;59.38
72892;BME280;61032;50.782;6.818;2022-07-29T03:37:38;100333.56;;;18.42;59.47
72892;BME280;61032;50.782;6.818;2022-07-29T03:38:39;100333.56;;;18.42;59.32
72892;BME280;61032;50.782;6.818;2022-07-29T03:39:43;100335.16;;;18.43;59.36
72892;BME280;61032;50.782;6.818;2022-07-29T03:40:53;100332.78;;;18.45;59.38
72892;BME280;61032;50.782;6.818;2022-07-29T03:41:55;100331.59;;;18.46;59.38
72892;BME280;61032;50.782;6.818;2022-07-29T03:42:58;100339.19;;;18.49;58.94
72892;BME280;61032;50.782;6.818;2022-07-29T03:44:00;100330.41;;;18.50;58.94
72892;BME280;61032;50.782;6.818;2022-07-29T03:45:05;100328.88;;;18.57;58.84
72892;BME280;61032;50.782;6.818;2022-07-29T03:46:08;100335.22;;;18.57;58.60
72892;BME280;61032;50.782;6.818;2022-07-29T03:47:11;100337.59;;;18.55;58.60
72892;BME280;61032;50.782;6.818;2022-07-29T03:48:15;100330.47;;;18.58;58.76
72892;BME280;61032;50.782;6.818;2022-07-29T03:49:17;100326.50;;;18.59;58.28
72892;BME280;61032;50.782;6.818;2022-07-29T03:50:20;100328.47;;;18.58;58.17
72892;BME280;61032;50.782;6.818;2022-07-29T03:51:21;100336.41;;;18.56;58.20
72892;BME280;61032;50.782;6.818;2022-07-29T03:52:22;100328.44;;;18.54;58.29
72892;BME280;61032;50.782;6.818;2022-07-29T03:53:22;100333.22;;;18.54;58.53
72892;BME280;61032;50.782;6.818;2022-07-29T03:54:23;100335.22;;;18.57;58.56
72892;BME280;61032;50.782;6.818;2022-07-29T03:55:23;100332.50;;;18.61;58.55
72892;BME280;61032;50.782;6.818;2022-07-29T03:56:27;100332.06;;;18.59;58.56
72892;BME280;61032;50.782;6.818;2022-07-29T03:57:28;100341.59;;;18.58;58.39
72892;BME280;61032;50.782;6.818;2022-07-29T03:58:31;100346.75;;;18.55;58.38
72892;BME280;61032;50.782;6.818;2022-07-29T03:59:32;100340.78;;;18.53;58.81
72892;BME280;61032;50.782;6.818;2022-07-29T04:00:34;100341.16;;;18.52;58.81
72892;BME280;61032;50.782;6.818;2022-07-29T04:01:36;100339.97;;;18.53;58.73
72892;BME280;61032;50.782;6.818;2022-07-29T04:02:38;100337.59;;;18.55;58.48
72892;BME280;61032;50.782;6.818;2022-07-29T04:03:38;100343.97;;;18.55;58.52
72892;BME280;61032;50.782;6.818;2022-07-29T04:04:39;100338.41;;;18.55;58.40
72892;BME280;61032;50.782;6.818;2022-07-29T04:05:39;100336.03;;;18.58;58.48
72892;BME280;61032;50.782;6.818;2022-07-29T04:06:45;100340.41;;;18.59;58.38
72892;BME280;61032;50.782;6.818;2022-07-29T04:07:47;100336.41;;;18.56;58.56
72892;BME280;61032;50.782;6.818;2022-07-29T04:08:47;100336.38;;;18.52;59.13
72892;BME280;61032;50.782;6.818;2022-07-29T04:09:48;100334.41;;;18.49;59.97
72892;BME280;61032;50.782;6.818;2022-07-29T04:10:48;100333.59;;;18.45;60.43
72892;BME280;61032;50.782;6.818;2022-07-29T04:11:48;100340.31;;;18.41;60.57
72892;BME280;61032;50.782;6.818;2022-07-29T04:12:49;100339.06;;;18.35;60.45
72892;BME280;61032;50.782;6.818;2022-07-29T04:13:49;100336.66;;;18.33;60.19
72892;BME280;61032;50.782;6.818;2022-07-29T04:14:50;100337.47;;;18.34;59.76
72892;BME280;61032;50.782;6.818;2022-07-29T04:15:50;100337.88;;;18.36;59.95
72892;BME280;61032;50.782;6.818;2022-07-29T04:16:50;100343.06;;;18.37;59.47
72892;BME280;61032;50.782;6.818;2022-07-29T04:17:51;100338.31;;;18.41;59.27
72892;BME280;61032;50.782;6.818;2022-07-29T04:18:51;100341.91;;;18.42;58.79
72892;BME280;61032;50.782;6.818;2022-07-29T04:19:51;100337.59;;;18.48;58.60
72892;BME280;61032;50.782;6.818;2022-07-29T04:20:52;100336.38;;;18.52;58.43
72892;BME280;61032;50.782;6.818;2022-07-29T04:21:52;100340.00;;;18.57;58.04
72892;BME280;61032;50.782;6.818;2022-07-29T04:22:52;100341.25;;;18.59;58.07
72892;BME280;61032;50.782;6.818;2022-07-29T04:23:53;100343.97;;;18.55;58.05
72892;BME280;61032;50.782;6.818;2022-07-29T04:24:53;100344.78;;;18.56;57.74
72892;BME280;61032;50.782;6.818;2022-07-29T04:25:53;100345.56;;;18.57;57.60
72892;BME280;61032;50.782;6.818;2022-07-29T04:26:54;100344.38;;;18.58;57.61
72892;BME280;61032;50.782;6.818;2022-07-29T04:27:54;100346.44;;;18.61;57.23
72892;BME280;61032;50.782;6.818;2022-07-29T04:29:00;100346.50;;;18.68;56.55
72892;BME280;61032;50.782;6.818;2022-07-29T04:30:01;100350.91;;;18.76;56.58
72892;BME280;61032;50.782;6.818;2022-07-29T04:31:01;100361.28;;;18.82;56.23
72892;BME280;61032;50.782;6.818;2022-07-29T04:32:01;100356.94;;;18.85;56.05
72892;BME280;61032;50.782;6.818;2022-07-29T04:33:04;100354.56;;;18.87;55.96
72892;BME280;61032;50.782;6.818;2022-07-29T04:34:05;100355.38;;;18.91;55.48
72892;BME280;61032;50.782;6.818;2022-07-29T04:35:05;100359.72;;;18.92;55.59
72892;BME280;61032;50.782;6.818;2022-07-29T04:36:06;100363.31;;;18.93;55.19
72892;BME280;61032;50.782;6.818;2022-07-29T04:37:06;100356.94;;;18.92;55.00
72892;BME280;61032;50.782;6.818;2022-07-29T04:38:06;100356.56;;;18.94;55.01
72892;BME280;61032;50.782;6.818;2022-07-29T04:39:07;100360.53;;;18.93;54.44
72892;BME280;61032;50.782;6.818;2022-07-29T04:40:07;100354.56;;;18.91;54.65
72892;BME280;61032;50.782;6.818;2022-07-29T04:41:08;100363.31;;;18.93;54.23
72892;BME280;61032;50.782;6.818;2022-07-29T04:42:08;100361.72;;;18.92;54.40
72892;BME280;61032;50.782;6.818;2022-07-29T04:43:09;100357.75;;;18.96;54.65
72892;BME280;61032;50.782;6.818;2022-07-29T04:44:09;100362.13;;;18.94;54.44
72892;BME280;61032;50.782;6.818;2022-07-29T04:45:09;100353.78;;;18.94;54.22
72892;BME280;61032;50.782;6.818;2022-07-29T04:46:09;100360.97;;;18.98;54.95
72892;BME280;61032;50.782;6.818;2022-07-29T04:47:10;100365.34;;;18.99;54.48
72892;BME280;61032;50.782;6.818;2022-07-29T04:48:10;100363.38;;;19.03;54.28
72892;BME280;61032;50.782;6.818;2022-07-29T04:49:11;100370.97;;;19.06;54.32
72892;BME280;61032;50.782;6.818;2022-07-29T04:50:11;100378.13;;;19.07;54.15
72892;BME280;61032;50.782;6.818;2022-07-29T04:51:12;100381.72;;;19.08;53.88
72892;BME280;61032;50.782;6.818;2022-07-29T04:52:13;100377.75;;;19.09;54.04
72892;BME280;61032;50.782;6.818;2022-07-29T04:53:13;100372.97;;;19.09;54.00
72892;BME280;61032;50.782;6.818;2022-07-29T04:54:13;100381.34;;;19.09;53.89
72892;BME280;61032;50.782;6.818;2022-07-29T04:55:14;100380.94;;;19.11;53.68
72892;BME280;61032;50.782;6.818;2022-07-29T04:56:14;100380.53;;;19.12;53.56
72892;BME280;61032;50.782;6.818;2022-07-29T04:57:14;100367.81;;;19.11;53.88
72892;BME280;61032;50.782;6.818;2022-07-29T04:58:14;100382.94;;;19.14;53.63
72892;BME280;61032;50.782;6.818;2022-07-29T04:59:15;100381.75;;;19.18;53.65
72892;BME280;61032;50.782;6.818;2022-07-29T05:00:16;100384.16;;;19.20;53.66
72892;BME280;61032;50.782;6.818;2022-07-29T05:01:16;100382.56;;;19.19;53.75
72892;BME280;61032;50.782;6.818;2022-07-29T05:02:17;100384.53;;;19.18;54.04
72892;BME280;61032;50.782;6.818;2022-07-29T05:03:18;100385.38;;;19.22;53.45
72892;BME280;61032;50.782;6.818;2022-07-29T05:04:18;100378.19;;;19.21;53.54
72892;BME280;61032;50.782;6.818;2022-07-29T05:05:18;100384.97;;;19.24;53.45
72892;BME280;61032;50.782;6.818;2022-07-29T05:06:19;100382.59;;;19.26;53.60
72892;BME280;61032;50.782;6.818;2022-07-29T05:07:19;100380.22;;;19.28;53.38
72892;BME280;61032;50.782;6.818;2022-07-29T05:08:19;100380.25;;;19.32;53.37
72892;BME280;61032;50.782;6.818;2022-07-29T05:09:20;100377.03;;;19.30;53.56
72892;BME280;61032;50.782;6.818;2022-07-29T05:10:20;100384.59;;;19.29;53.43
72892;BME280;61032;50.782;6.818;2022-07-29T05:11:21;100389.78;;;19.31;53.71
72892;BME280;61032;50.782;6.818;2022-07-29T05:12:21;100392.97;;;19.29;53.73
72892;BME280;61032;50.782;6.818;2022-07-29T05:13:21;100396.16;;;19.31;53.56
72892;BME280;61032;50.782;6.818;2022-07-29T05:14:21;100394.56;;;19.34;54.09
72892;BME280;61032;50.782;6.818;2022-07-29T05:15:22;100400.19;;;19.41;53.05
72892;BME280;61032;50.782;6.818;2022-07-29T05:16:22;100401.78;;;19.45;53.38
72892;BME280;61032;50.782;6.818;2022-07-29T05:17:22;100395.41;;;19.45;53.13
72892;BME280;61032;50.782;6.818;2022-07-29T05:18:23;100397.78;;;19.43;53.47
72892;BME280;61032;50.782;6.818;2022-07-29T05:19:24;100398.59;;;19.43;53.32
72892;BME280;61032;50.782;6.818;2022-07-29T05:20:24;100408.94;;;19.43;53.36
72892;BME280;61032;50.782;6.818;2022-07-29T05:21:28;100405.38;;;19.42;53.53
72892;BME280;61032;50.782;6.818;2022-07-29T05:22:28;100406.16;;;19.43;53.44
72892;BME280;61032;50.782;6.818;2022-07-29T05:23:28;100411.75;;;19.43;53.49
72892;BME280;61032;50.782;6.818;2022-07-29T05:24:29;100419.69;;;19.37;53.95
72892;BME280;61032;50.782;6.818;2022-07-29T05:25:29;100424.84;;;19.35;53.86
72892;BME280;61032;50.782;6.818;2022-07-29T05:26:30;100431.22;;;19.29;53.64
72892;BME280;61032;50.782;6.818;2022-07-29T05:27:30;100432.34;;;19.20;53.71
72892;BME280;61032;50.782;6.818;2022-07-29T05:28:34;100431.94;;;19.18;53.80
72892;BME280;61032;50.782;6.818;2022-07-29T05:29:35;100438.69;;;19.14;54.11
72892;BME280;61032;50.782;6.818;2022-07-29T05:30:35;100438.28;;;19.15;54.45
72892;BME280;61032;50.782;6.818;2022-07-29T05:31:35;100434.69;;;19.11;54.35
72892;BME280;61032;50.782;6.818;2022-07-29T05:32:36;100445.03;;;19.07;55.30
72892;BME280;61032;50.782;6.818;2022-07-29T05:33:36;100447.81;;;19.07;56.01
72892;BME280;61032;50.782;6.818;2022-07-29T05:34:36;100445.34;;;18.95;56.95
72892;BME280;61032;50.782;6.818;2022-07-29T05:35:37;100450.88;;;18.88;57.54
72892;BME280;61032;50.782;6.818;2022-07-29T05:36:37;100448.50;;;18.90;57.63
72892;BME280;61032;50.782;6.818;2022-07-29T05:37:37;100454.03;;;18.83;58.01